Time;durP1;ratioP1;P1;durP2;ratioP2;P2;SDS_P1;SDS_P2;PMS_P1;PMS_P2;Temp;Humidity;BMP_temperature;BMP_pressure;BME280_temperature;BME280_humidity;BME280_pressure;Samples;Min_cycle;Max_cycle;Signal;HPM_P1;HPM_P2
2022/03/27 00:02:14;;;;;;;20.37;10.10;;;;;;;15.06;20.60;97001.56;5045573;28;20206;-84
2022/03/27 00:04:41;;;;;;;14.13;9.83;;;;;;;15.01;20.69;96996.06;5047184;28;20305;-84
2022/03/27 00:07:09;;;;;;;12.13;9.10;;;;;;;15.00;20.77;96990.84;5043821;28;20210;-84
2022/03/27 00:09:36;;;;;;;13.67;9.47;;;;;;;14.91;21.02;96995.84;5031519;28;20215;-84
2022/03/27 00:12:04;;;;;;;14.07;9.60;;;;;;;14.91;21.26;96992.31;5038411;28;20209;-84
2022/03/27 00:14:31;;;;;;;16.13;10.33;;;;;;;14.94;21.40;97002.72;5044391;28;20214;-83
2022/03/27 00:16:59;;;;;;;12.00;8.67;;;;;;;14.82;21.22;96991.84;5041524;28;20285;-83
2022/03/27 00:19:26;;;;;;;17.27;10.00;;;;;;;14.85;21.71;96996.81;5042367;28;20369;-83
2022/03/27 00:21:53;;;;;;;13.43;9.17;;;;;;;14.76;21.76;96990.13;5052626;28;20229;-83
2022/03/27 00:24:22;;;;;;;15.47;10.27;;;;;;;14.75;21.44;96988.47;5046480;28;20267;-84
2022/03/27 00:26:49;;;;;;;13.10;9.40;;;;;;;14.71;21.78;96999.00;5036163;28;20250;-84
2022/03/27 00:29:17;;;;;;;12.63;9.50;;;;;;;14.70;21.52;96985.66;5039975;28;20289;-84
2022/03/27 00:31:45;;;;;;;16.07;10.53;;;;;;;14.72;21.93;96999.81;5030463;28;20202;-84
2022/03/27 00:34:12;;;;;;;15.67;9.20;;;;;;;14.83;21.66;96990.78;5037909;28;20267;-84
2022/03/27 00:36:39;;;;;;;14.27;9.90;;;;;;;14.91;21.30;96986.88;5045985;28;20198;-84
2022/03/27 00:39:07;;;;;;;14.17;9.77;;;;;;;14.83;21.39;96987.25;5043311;28;20290;-84
2022/03/27 00:41:35;;;;;;;14.93;9.80;;;;;;;14.84;21.52;96987.00;5039202;28;20293;-83
2022/03/27 00:44:02;;;;;;;14.40;9.37;;;;;;;14.80;21.25;96985.03;5036295;28;20200;-84
2022/03/27 00:46:29;;;;;;;14.77;9.80;;;;;;;14.79;21.20;96989.66;5046809;28;20232;-84
2022/03/27 00:48:57;;;;;;;17.57;10.33;;;;;;;14.71;21.85;96984.59;5044383;28;20206;-84
2022/03/27 00:51:24;;;;;;;14.90;9.13;;;;;;;14.76;21.48;96984.69;5045559;28;20202;-84
2022/03/27 00:53:51;;;;;;;12.60;9.60;;;;;;;14.69;22.10;96992.16;5038596;28;20273;-84
2022/03/27 00:56:19;;;;;;;18.90;9.90;;;;;;;14.86;21.78;96993.03;5042416;28;20215;-84
2022/03/27 00:58:48;;;;;;;14.80;9.63;;;;;;;14.67;21.98;96965.19;5041811;28;20234;-84
2022/03/27 01:01:17;;;;;;;14.27;9.90;;;;;;;14.65;21.94;96985.53;5041046;28;20209;-83
2022/03/27 01:03:47;;;;;;;13.57;9.53;;;;;;;14.77;22.00;96992.59;5039275;28;20256;-84
2022/03/27 01:06:26;;;;;;;14.03;10.03;;;;;;;14.68;22.02;96977.72;5034045;28;20246;-84
2022/03/27 01:11:38;;;;;;;14.80;9.60;;;;;;;14.76;21.27;96985.50;5043578;28;20209;-84
2022/03/27 01:14:07;;;;;;;15.73;10.30;;;;;;;14.77;21.69;96978.19;5043992;28;20199;-84
2022/03/27 01:16:39;;;;;;;16.53;10.40;;;;;;;14.85;21.42;96983.22;5035290;28;20218;-84
2022/03/27 01:19:07;;;;;;;14.17;9.63;;;;;;;14.78;21.40;96966.25;5041114;28;20217;-84
2022/03/27 01:21:38;;;;;;;16.43;10.40;;;;;;;14.81;21.47;96973.88;5044624;28;20605;-84
2022/03/27 01:24:07;;;;;;;15.60;10.37;;;;;;;14.75;22.07;96983.03;5031817;28;20230;-84
2022/03/27 01:26:34;;;;;;;14.43;9.83;;;;;;;14.79;22.16;96970.63;5040964;28;20237;-84
2022/03/27 01:29:01;;;;;;;19.67;11.03;;;;;;;14.72;21.81;96970.72;5068272;28;20234;-84
2022/03/27 01:31:28;;;;;;;15.77;10.50;;;;;;;14.87;21.44;96983.81;5041673;28;20217;-83
2022/03/27 01:33:55;;;;;;;15.60;11.10;;;;;;;14.84;21.85;96969.88;5039209;28;20220;-83
2022/03/27 01:36:25;;;;;;;16.73;10.60;;;;;;;14.77;21.70;96978.19;5038479;28;20221;-84
2022/03/27 01:38:55;;;;;;;15.77;10.27;;;;;;;14.70;22.42;96964.72;5037222;28;20320;-84
2022/03/27 01:41:22;;;;;;;14.57;10.53;;;;;;;14.79;21.75;96967.91;5035953;28;20260;-84
2022/03/27 01:43:50;;;;;;;14.90;10.30;;;;;;;14.77;22.00;96965.41;5032583;28;20293;-84
2022/03/27 01:46:18;;;;;;;15.07;10.67;;;;;;;14.85;21.78;96969.63;5033222;28;20222;-84
2022/03/27 01:48:45;;;;;;;17.60;10.30;;;;;;;14.81;21.72;96965.72;5053327;28;20220;-84
2022/03/27 01:51:12;;;;;;;16.43;10.90;;;;;;;14.80;21.55;96974.97;5048122;28;20296;-84
2022/03/27 01:53:40;;;;;;;15.63;10.93;;;;;;;14.79;22.04;96972.50;5057781;28;20214;-84
2022/03/27 01:56:10;;;;;;;16.47;11.60;;;;;;;14.82;21.73;96967.38;5035728;28;20206;-84
2022/03/27 01:58:39;;;;;;;19.73;11.20;;;;;;;14.79;22.26;96975.22;5040962;28;20321;-83
2022/03/27 02:01:07;;;;;;;18.73;11.47;;;;;;;14.82;21.59;96978.25;5036488;28;20206;-83
2022/03/27 02:03:34;;;;;;;16.77;10.90;;;;;;;14.76;21.63;96974.63;5032389;28;20202;-83
2022/03/27 02:06:01;;;;;;;15.70;10.50;;;;;;;14.74;21.54;96974.03;5039652;28;20222;-83
2022/03/27 02:08:29;;;;;;;18.43;11.93;;;;;;;14.70;22.00;96966.63;5044577;28;20229;-84
2022/03/27 02:10:56;;;;;;;14.97;11.00;;;;;;;14.77;22.07;96970.03;5042345;28;20203;-84
2022/03/27 02:13:25;;;;;;;16.73;10.73;;;;;;;14.70;22.24;96966.63;5034464;28;20220;-84
2022/03/27 02:15:53;;;;;;;14.43;10.00;;;;;;;14.66;22.42;96962.72;5041588;28;20218;-84
2022/03/27 02:18:20;;;;;;;16.60;11.20;;;;;;;14.64;22.30;96967.56;5043917;28;20235;-83
2022/03/27 02:20:48;;;;;;;17.40;11.13;;;;;;;14.61;21.96;96968.88;5031713;28;20207;-84
2022/03/27 02:23:15;;;;;;;15.10;10.13;;;;;;;14.53;22.63;96969.28;5031852;28;20202;-84
2022/03/27 02:25:42;;;;;;;15.27;10.83;;;;;;;14.52;22.54;96972.22;5036296;28;20234;-83
2022/03/27 02:28:10;;;;;;;15.60;11.03;;;;;;;14.60;22.49;96983.53;5036826;28;20206;-84
2022/03/27 02:30:38;;;;;;;18.10;10.80;;;;;;;14.55;22.10;96969.00;5040778;28;20210;-83
2022/03/27 02:33:06;;;;;;;16.53;11.63;;;;;;;14.67;22.22;96983.41;5039712;28;20265;-84
2022/03/27 02:35:33;;;;;;;14.97;10.33;;;;;;;14.55;22.31;96974.44;5034181;28;20424;-84
2022/03/27 02:38:04;;;;;;;16.60;10.07;;;;;;;13.76;31.72;96990.31;5034408;28;20210;-84
2022/03/27 02:40:32;;;;;;;14.57;10.80;;;;;;;13.09;33.75;96994.25;5030483;28;20221;-84
2022/03/27 02:42:59;;;;;;;15.00;10.53;;;;;;;12.63;35.92;96989.44;5054794;28;20286;-84
2022/03/27 02:45:27;;;;;;;16.00;10.03;;;;;;;11.94;38.87;96996.84;5049671;28;20209;-84
2022/03/27 02:47:56;;;;;;;16.37;10.97;;;;;;;11.76;35.08;96994.09;5053322;28;20212;-84
2022/03/27 02:50:24;;;;;;;16.20;10.37;;;;;;;11.21;40.12;96991.22;5033587;28;20203;-84
2022/03/27 02:52:51;;;;;;;15.33;10.63;;;;;;;11.13;39.90;96988.75;5039308;28;20202;-84
2022/03/27 02:55:19;;;;;;;15.23;10.27;;;;;;;11.40;34.30;96996.69;5041413;28;20206;-84
2022/03/27 02:57:46;;;;;;;15.07;10.10;;;;;;;11.30;41.90;97008.81;5039848;28;20207;-84
2022/03/27 03:00:14;;;;;;;16.30;10.70;;;;;;;10.97;44.95;97016.31;5040900;28;20256;-84
2022/03/27 03:02:41;;;;;;;18.70;11.63;;;;;;;10.59;46.90;97013.56;5034582;28;20353;-84
2022/03/27 03:05:10;;;;;;;15.57;10.53;;;;;;;10.21;48.70;97008.91;5044342;28;20211;-84
2022/03/27 03:07:41;;;;;;;14.73;10.30;;;;;;;10.16;49.49;97014.09;5061462;28;20309;-84
2022/03/27 03:10:09;;;;;;;15.50;10.57;;;;;;;10.10;45.11;97000.63;5045974;28;20212;-84
2022/03/27 03:12:36;;;;;;;17.60;10.43;;;;;;;10.01;49.48;97013.50;5040739;28;20326;-85
2022/03/27 03:15:04;;;;;;;15.90;10.13;;;;;;;9.84;50.45;97028.47;5042559;28;20207;-84
2022/03/27 03:17:31;;;;;;;15.17;10.10;;;;;;;9.63;51.89;96999.84;5054117;28;20199;-84
2022/03/27 03:19:58;;;;;;;18.30;10.93;;;;;;;9.44;53.41;97016.88;5054786;28;20261;-84
2022/03/27 03:22:27;;;;;;;18.23;10.80;;;;;;;9.38;51.08;97007.72;5037944;28;20541;-85
2022/03/27 03:24:55;;;;;;;17.40;10.87;;;;;;;9.34;53.32;97019.16;5040065;28;20226;-85
2022/03/27 03:27:22;;;;;;;15.77;10.50;;;;;;;9.26;53.90;97006.69;5046344;28;20222;-84
2022/03/27 03:29:49;;;;;;;17.17;10.67;;;;;;;9.19;54.97;97023.88;5052024;28;20237;-84
2022/03/27 03:32:16;;;;;;;16.13;10.40;;;;;;;9.00;55.79;97017.44;5047783;28;20206;-84
2022/03/27 03:34:43;;;;;;;16.10;10.13;;;;;;;8.96;56.47;97032.31;5037636;28;20221;-84
2022/03/27 03:37:10;;;;;;;14.30;9.97;;;;;;;8.94;55.66;97012.84;5048663;28;20200;-84
2022/03/27 03:39:39;;;;;;;16.30;11.07;;;;;;;8.82;56.18;97036.84;5045632;28;20287;-84
2022/03/27 03:42:06;;;;;;;16.17;10.17;;;;;;;9.04;48.79;97016.81;5045987;28;20202;-85
2022/03/27 03:44:33;;;;;;;15.30;10.30;;;;;;;9.09;51.12;97021.59;5041212;28;20210;-84
2022/03/27 03:47:00;;;;;;;17.07;10.60;;;;;;;9.00;55.54;97045.19;5049474;28;20218;-84
2022/03/27 03:49:27;;;;;;;15.37;9.87;;;;;;;9.09;52.00;97049.38;5037711;28;20224;-85
2022/03/27 03:51:54;;;;;;;15.60;10.33;;;;;;;9.04;55.02;97038.34;5046536;28;20297;-84
2022/03/27 03:54:22;;;;;;;19.40;10.97;;;;;;;8.91;57.01;97032.13;5061875;28;20210;-84
2022/03/27 03:56:50;;;;;;;15.67;10.33;;;;;;;8.60;58.47;97040.69;5048284;28;20251;-85
2022/03/27 03:59:17;;;;;;;16.37;10.00;;;;;;;8.52;57.73;97041.69;5042722;28;20206;-85
2022/03/27 04:01:44;;;;;;;15.13;10.27;;;;;;;8.69;57.68;97053.78;5047327;28;20195;-85
2022/03/27 04:04:11;;;;;;;17.17;10.27;;;;;;;8.66;58.21;97038.06;5040622;28;20228;-84
2022/03/27 04:06:38;;;;;;;18.10;10.57;;;;;;;8.60;58.89;97054.16;5048320;28;20230;-85
2022/03/27 04:09:06;;;;;;;14.97;10.20;;;;;;;8.54;59.09;97054.97;5040638;28;20206;-84
2022/03/27 04:11:33;;;;;;;14.53;9.83;;;;;;;8.44;58.60;97035.66;5042692;28;20206;-85
2022/03/27 04:14:01;;;;;;;15.47;9.93;;;;;;;8.47;57.15;97037.97;5033247;28;20218;-85
2022/03/27 04:16:29;;;;;;;15.27;10.37;;;;;;;8.48;57.67;97039.63;5062236;28;20229;-85
2022/03/27 04:18:56;;;;;;;16.47;10.57;;;;;;;8.48;58.48;97043.16;5037417;28;20198;-84
2022/03/27 04:21:23;;;;;;;15.90;10.60;;;;;;;8.42;60.00;97051.19;5034365;28;20236;-85
2022/03/27 04:23:50;;;;;;;14.77;9.57;;;;;;;8.24;61.06;97057.91;5058773;28;20214;-85
2022/03/27 04:26:17;;;;;;;18.93;10.10;;;;;;;7.99;62.39;97046.75;5043212;28;20310;-84
2022/03/27 04:28:45;;;;;;;16.90;10.63;;;;;;;8.06;62.24;97056.75;5052785;28;20245;-84
2022/03/27 04:31:14;;;;;;;17.53;11.33;;;;;;;8.12;60.13;97043.34;5046094;28;20213;-84
2022/03/27 04:33:41;;;;;;;19.47;11.17;;;;;;;8.07;60.86;97042.28;5046165;28;20229;-85
2022/03/27 04:36:09;;;;;;;17.70;11.10;;;;;;;7.99;62.16;97041.38;5058841;28;20194;-84
2022/03/27 04:38:36;;;;;;;19.07;10.50;;;;;;;7.89;63.20;97066.97;5041068;28;20210;-84
2022/03/27 04:41:03;;;;;;;16.73;10.43;;;;;;;7.85;64.14;97066.53;5050305;28;20221;-84
2022/03/27 04:43:32;;;;;;;15.90;10.43;;;;;;;7.72;64.92;97050.31;5044063;28;20532;-84
2022/03/27 04:45:59;;;;;;;17.93;10.70;;;;;;;7.52;66.20;97054.69;5047764;28;20216;-84
2022/03/27 04:48:29;;;;;;;17.60;10.83;;;;;;;7.33;67.64;97052.63;5042733;28;20242;-85
2022/03/27 04:50:56;;;;;;;14.20;9.70;;;;;;;7.38;67.47;97059.13;5042346;28;20207;-84
2022/03/27 04:53:23;;;;;;;16.17;10.30;;;;;;;7.44;67.01;97058.34;5043334;28;20210;-85
2022/03/27 04:55:50;;;;;;;16.03;9.57;;;;;;;7.55;65.93;97067.75;5060425;28;20205;-84
2022/03/27 04:58:17;;;;;;;13.90;10.10;;;;;;;7.57;66.05;97047.69;5041258;28;20253;-85
2022/03/27 05:00:45;;;;;;;14.97;10.40;;;;;;;7.57;66.38;97069.19;5044309;28;20217;-84
2022/03/27 05:03:12;;;;;;;19.40;10.00;;;;;;;7.47;66.81;97063.34;5057472;28;20311;-85
2022/03/27 05:05:41;;;;;;;18.37;10.97;;;;;;;7.34;68.04;97068.56;5051080;28;20198;-84
2022/03/27 05:08:09;;;;;;;17.23;11.53;;;;;;;7.19;69.41;97070.50;5041500;28;20238;-85
2022/03/27 05:10:36;;;;;;;18.73;10.87;;;;;;;7.09;69.70;97064.59;5054784;28;20210;-85
2022/03/27 05:13:04;;;;;;;15.53;10.43;;;;;;;7.08;70.91;97058.41;5037603;28;20268;-84
2022/03/27 05:15:31;;;;;;;17.63;10.60;;;;;;;7.17;70.63;97059.94;5047228;28;20226;-84
2022/03/27 05:17:59;;;;;;;17.57;10.70;;;;;;;7.09;71.07;97078.03;5036901;28;20202;-85
2022/03/27 05:20:28;;;;;;;13.77;10.10;;;;;;;7.07;71.88;97075.53;5057636;28;20296;-84
2022/03/27 05:22:59;;;;;;;17.47;10.37;;;;;;;7.07;70.36;97082.75;5046045;28;20241;-84
2022/03/27 05:25:27;;;;;;;15.03;10.67;;;;;;;7.14;71.18;97073.78;5037671;28;20198;-85
2022/03/27 05:27:55;;;;;;;16.43;10.43;;;;;;;7.09;72.42;97069.97;5043895;28;20249;-84
2022/03/27 05:30:24;;;;;;;15.90;10.60;;;;;;;6.86;73.87;97064.78;5048317;28;20211;-84
2022/03/27 05:32:53;;;;;;;16.50;10.13;;;;;;;6.86;73.90;97070.16;5048469;28;20297;-84
2022/03/27 05:35:21;;;;;;;16.50;11.10;;;;;;;6.85;74.12;97081.91;5043114;28;20297;-85
2022/03/27 05:37:49;;;;;;;16.60;10.27;;;;;;;6.96;74.88;97056.44;5047809;28;20201;-85
2022/03/27 05:40:20;;;;;;;18.23;10.70;;;;;;;6.84;75.18;97081.06;5044639;28;20278;-84
2022/03/27 05:42:49;;;;;;;21.90;11.13;;;;;;;6.91;75.04;97083.81;5039656;28;20210;-84
2022/03/27 05:45:16;;;;;;;17.60;10.93;;;;;;;6.98;75.09;97075.84;5035506;28;20204;-85
2022/03/27 05:47:44;;;;;;;15.13;10.30;;;;;;;6.77;77.68;97071.28;5032670;28;20240;-84
2022/03/27 05:50:12;;;;;;;18.80;11.20;;;;;;;6.72;77.46;97066.47;5039185;28;20195;-85
2022/03/27 05:52:41;;;;;;;20.73;11.57;;;;;;;6.90;76.99;97074.09;5043497;28;20205;-85
2022/03/27 05:55:08;;;;;;;16.23;10.83;;;;;;;6.74;77.94;97077.84;5033963;28;20226;-85
2022/03/27 05:57:37;;;;;;;18.73;10.73;;;;;;;6.68;79.78;97067.88;5038306;28;20252;-85
2022/03/27 06:00:06;;;;;;;15.40;10.80;;;;;;;6.61;79.50;97075.03;5042720;28;20220;-84
2022/03/27 06:02:36;;;;;;;23.63;10.97;;;;;;;6.76;78.27;97094.59;5041523;28;20224;-84
2022/03/27 06:05:04;;;;;;;16.03;10.97;;;;;;;6.72;80.83;97097.88;5058882;28;20213;-84
2022/03/27 06:07:31;;;;;;;17.30;11.07;;;;;;;6.76;81.38;97091.91;5042207;28;20249;-85
2022/03/27 06:09:58;;;;;;;16.37;11.00;;;;;;;6.74;82.18;97099.31;5039174;28;20206;-84
2022/03/27 06:12:25;;;;;;;20.57;12.07;;;;;;;6.74;83.11;97102.00;5044852;28;20210;-84
2022/03/27 06:14:53;;;;;;;18.00;11.97;;;;;;;6.76;83.40;97089.25;5054628;28;20221;-84
2022/03/27 06:17:20;;;;;;;19.57;11.37;;;;;;;6.72;84.31;97100.56;5054398;28;20288;-84
2022/03/27 06:19:47;;;;;;;16.83;10.93;;;;;;;6.80;83.93;97109.31;5042555;28;20386;-84
2022/03/27 06:22:14;;;;;;;17.33;11.57;;;;;;;6.80;84.86;97098.56;5041633;28;20258;-85
2022/03/27 06:24:41;;;;;;;16.23;11.27;;;;;;;6.84;86.74;97093.66;5042241;28;20230;-84
2022/03/27 06:27:08;;;;;;;19.73;12.17;;;;;;;6.86;87.71;97106.91;5041830;28;20236;-85
2022/03/27 06:29:35;;;;;;;21.87;11.77;;;;;;;6.72;87.67;97101.34;5035953;28;20217;-85
2022/03/27 06:32:05;;;;;;;18.37;11.83;;;;;;;6.71;88.75;97110.44;5035640;28;20206;-84
2022/03/27 06:34:32;;;;;;;18.37;11.63;;;;;;;6.67;87.95;97087.69;5044116;28;20210;-84
2022/03/27 06:36:59;;;;;;;19.50;11.73;;;;;;;6.79;85.13;97120.25;5047180;28;20289;-84
2022/03/27 06:39:26;;;;;;;17.30;11.27;;;;;;;6.89;86.25;97101.16;5040112;28;20297;-84
2022/03/27 06:41:53;;;;;;;18.57;11.30;;;;;;;6.88;87.75;97110.22;5047234;28;20246;-84
2022/03/27 06:44:20;;;;;;;19.43;12.00;;;;;;;6.82;88.24;97111.78;5038463;28;20217;-85
2022/03/27 06:46:47;;;;;;;21.83;11.73;;;;;;;6.73;88.26;97108.38;5050348;28;20294;-85
2022/03/27 06:49:15;;;;;;;16.47;11.47;;;;;;;6.79;89.12;97117.56;5045607;28;20212;-84
2022/03/27 06:51:42;;;;;;;16.23;11.33;;;;;;;6.65;90.29;97110.34;5041122;28;20216;-84
2022/03/27 06:54:10;;;;;;;19.33;13.10;;;;;;;6.70;90.28;97108.78;5047884;28;20278;-84
2022/03/27 06:56:41;;;;;;;20.93;12.17;;;;;;;6.65;90.99;97105.81;5054309;28;20211;-84
2022/03/27 06:59:09;;;;;;;17.23;12.23;;;;;;;6.71;90.69;97102.41;5040472;28;20198;-85
2022/03/27 07:04:22;;;;;;;18.67;12.33;;;;;;;6.60;91.49;97118.97;5062614;28;20288;-85
2022/03/27 07:06:49;;;;;;;22.00;12.90;;;;;;;6.64;91.18;97114.88;5054002;28;20193;-84
2022/03/27 07:09:18;;;;;;;18.97;12.30;;;;;;;6.77;90.48;97098.97;5048582;28;20241;-85
2022/03/27 07:11:46;;;;;;;16.00;10.80;;;;;;;6.74;89.61;97103.84;5044489;28;20206;-85
2022/03/27 07:14:14;;;;;;;17.80;11.90;;;;;;;6.72;89.28;97090.63;5050720;28;20240;-84
2022/03/27 07:16:41;;;;;;;20.53;12.10;;;;;;;6.74;88.82;97093.94;5059465;28;20228;-85
2022/03/27 07:19:11;;;;;;;17.47;11.83;;;;;;;6.72;88.86;97098.66;5053258;28;20269;-85
2022/03/27 07:21:39;;;;;;;19.13;11.63;;;;;;;6.71;89.16;97097.03;5031367;28;20230;-84
2022/03/27 07:24:07;;;;;;;17.90;11.73;;;;;;;6.77;88.67;97115.06;5043974;28;20220;-85
2022/03/27 07:26:35;;;;;;;18.20;11.97;;;;;;;6.74;88.03;97098.50;5031677;28;20294;-84
2022/03/27 07:29:04;;;;;;;17.83;11.47;;;;;;;6.79;87.60;97106.81;5048780;28;20224;-85
2022/03/27 07:31:32;;;;;;;18.17;11.67;;;;;;;6.71;88.04;97104.25;5044545;28;20198;-85
2022/03/27 07:33:59;;;;;;;21.10;12.53;;;;;;;6.72;88.60;97104.03;5040359;28;20210;-85
2022/03/27 07:36:26;;;;;;;15.90;11.60;;;;;;;6.79;87.18;97107.66;5037213;28;20217;-85
2022/03/27 07:38:54;;;;;;;19.33;12.33;;;;;;;6.82;85.39;97109.94;5047465;28;20226;-85
2022/03/27 07:41:21;;;;;;;20.20;11.80;;;;;;;6.90;84.78;97098.25;5049698;28;20248;-84
2022/03/27 07:43:48;;;;;;;18.00;11.80;;;;;;;7.03;83.83;97103.81;5046230;28;20274;-85
2022/03/27 07:46:15;;;;;;;19.93;11.97;;;;;;;7.11;83.43;97117.13;5037543;28;20289;-85
2022/03/27 07:48:43;;;;;;;20.67;11.67;;;;;;;7.20;83.79;97115.13;5062340;28;20230;-84
2022/03/27 07:51:10;;;;;;;18.97;11.80;;;;;;;7.12;83.12;97107.19;5034237;28;20226;-85
2022/03/27 07:53:37;;;;;;;19.97;12.97;;;;;;;7.10;82.78;97109.25;5048636;28;20213;-85
2022/03/27 07:56:06;;;;;;;21.37;12.30;;;;;;;7.20;82.12;97117.81;5056907;28;20261;-85
2022/03/27 07:58:34;;;;;;;18.47;11.73;;;;;;;7.21;80.24;97112.28;5045260;28;20325;-85
2022/03/27 08:01:01;;;;;;;19.83;11.20;;;;;;;7.33;80.56;97117.94;5045730;28;20215;-85
2022/03/27 08:03:28;;;;;;;19.33;11.60;;;;;;;7.44;79.84;97114.75;5062692;28;20205;-84
2022/03/27 08:05:55;;;;;;;17.63;11.27;;;;;;;7.57;78.54;97117.56;5046750;28;20207;-85
2022/03/27 08:08:22;;;;;;;13.77;10.03;;;;;;;7.74;75.08;97122.69;5045894;28;20233;-85
2022/03/27 08:10:49;;;;;;;20.03;11.37;;;;;;;7.87;73.46;97117.41;5044388;28;20211;-85
2022/03/27 08:13:17;;;;;;;17.27;11.33;;;;;;;7.91;72.60;97124.88;5047413;28;20209;-84
2022/03/27 08:15:45;;;;;;;17.77;10.10;;;;;;;8.06;69.90;97135.59;5041521;28;20234;-85
2022/03/27 08:18:13;;;;;;;18.63;10.60;;;;;;;8.34;69.21;97127.50;5043263;28;20307;-85
2022/03/27 08:20:41;;;;;;;19.67;11.10;;;;;;;8.74;67.10;97120.50;5037891;28;20209;-85
2022/03/27 08:23:08;;;;;;;18.33;12.40;;;;;;;9.28;64.47;97133.13;5053004;28;20238;-85
2022/03/27 08:28:21;;;;;;;16.00;10.33;;;;;;;10.06;59.07;97124.31;5039552;28;20256;-84
2022/03/27 08:30:49;;;;;;;16.30;9.90;;;;;;;10.42;58.90;97126.59;5047581;28;20234;-85
2022/03/27 08:33:18;;;;;;;14.47;9.67;;;;;;;10.78;55.37;97114.47;5056599;28;20207;-84
2022/03/27 08:35:46;;;;;;;16.50;10.27;;;;;;;11.13;55.77;97120.38;5039549;28;20210;-84
2022/03/27 08:38:14;;;;;;;16.67;10.47;;;;;;;11.46;53.55;97128.31;5047567;28;20202;-85
2022/03/27 08:40:42;;;;;;;16.27;10.50;;;;;;;11.54;51.96;97123.47;5044239;28;20206;-84
2022/03/27 08:43:11;;;;;;;15.37;10.23;;;;;;;11.58;51.92;97130.09;5039821;28;20212;-85
2022/03/27 08:45:40;;;;;;;20.17;14.17;;;;;;;11.68;50.34;97116.09;5039563;28;20226;-84
2022/03/27 08:48:08;;;;;;;19.20;11.13;;;;;;;11.82;49.25;97125.84;5059272;28;20234;-85
2022/03/27 08:50:39;;;;;;;20.20;11.93;;;;;;;11.89;47.59;97121.19;5049662;28;20209;-84
2022/03/27 08:53:11;;;;;;;18.83;11.60;;;;;;;12.10;47.87;97128.94;5043513;28;20218;-85
2022/03/27 08:55:41;;;;;;;21.07;12.30;;;;;;;12.24;48.27;97128.84;5036362;28;20210;-85
2022/03/27 08:58:11;;;;;;;17.30;11.27;;;;;;;12.29;46.75;97142.53;5044300;28;20198;-84
2022/03/27 09:00:41;;;;;;;17.87;11.90;;;;;;;12.48;47.29;97119.84;5035630;28;20242;-85
2022/03/27 09:03:08;;;;;;;17.90;11.57;;;;;;;12.73;46.34;97141.47;5050293;28;20206;-85
2022/03/27 09:05:37;;;;;;;20.23;12.10;;;;;;;12.81;45.21;97128.47;5043491;28;20276;-84
2022/03/27 09:08:07;;;;;;;16.50;11.60;;;;;;;12.95;45.70;97125.59;5061750;28;20340;-85
2022/03/27 09:10:35;;;;;;;18.60;11.23;;;;;;;13.03;45.08;97130.72;5046762;28;20217;-84
2022/03/27 09:13:02;;;;;;;17.57;12.10;;;;;;;13.15;45.12;97134.38;5038305;28;20221;-84
2022/03/27 09:15:29;;;;;;;16.73;11.40;;;;;;;13.28;44.06;97128.75;5041444;28;20230;-84
2022/03/27 09:18:04;;;;;;;19.87;11.83;;;;;;;13.35;44.68;97136.84;5057280;28;20217;-84
2022/03/27 09:20:36;;;;;;;17.67;11.90;;;;;;;13.03;45.71;97128.81;5044734;28;20202;-85
2022/03/27 09:23:21;;;;;;;17.03;11.57;;;;;;;13.23;45.78;97124.03;5047710;28;20222;-84
2022/03/27 09:25:53;;;;;;;18.20;12.30;;;;;;;13.41;44.01;97131.31;5043656;28;20230;-85
2022/03/27 09:28:29;;;;;;;19.53;12.80;;;;;;;13.35;42.54;97131.41;5039048;28;20250;-85
2022/03/27 09:30:58;;;;;;;18.13;12.20;;;;;;;13.76;42.26;97133.34;5028938;28;20333;-84
2022/03/27 09:33:48;;;;;;;20.30;12.90;;;;;;;13.93;40.08;97131.63;5047342;28;20218;-84
2022/03/27 09:36:21;;;;;;;19.00;13.17;;;;;;;14.00;40.22;97129.63;5031691;28;20309;-84
2022/03/27 09:39:01;;;;;;;20.67;13.23;;;;;;;14.06;40.49;97138.72;5051958;28;20203;-84
2022/03/27 09:41:33;;;;;;;19.33;12.80;;;;;;;14.20;40.49;97135.56;5059433;28;20234;-84
2022/03/27 09:44:02;;;;;;;20.23;12.93;;;;;;;14.37;40.04;97139.22;5044209;28;20252;-84
2022/03/27 09:46:50;;;;;;;21.73;12.47;;;;;;;14.39;40.27;97133.59;5044195;28;20216;-84
2022/03/27 09:49:21;;;;;;;19.60;12.97;;;;;;;14.55;40.34;97111.16;5043018;28;20258;-84
2022/03/27 09:51:56;;;;;;;19.93;13.63;;;;;;;14.59;40.39;97122.38;5035124;28;20199;-84
2022/03/27 09:54:24;;;;;;;17.63;12.27;;;;;;;14.70;39.83;97114.25;5034293;28;20202;-84
2022/03/27 09:56:51;;;;;;;21.17;13.13;;;;;;;14.68;38.30;97110.94;5042485;28;20268;-84
2022/03/27 09:59:27;;;;;;;18.93;12.93;;;;;;;14.68;37.78;97129.94;5030021;28;20278;-84
2022/03/27 10:01:56;;;;;;;20.97;13.07;;;;;;;14.68;38.62;97123.69;5060422;28;20202;-84
2022/03/27 10:04:24;;;;;;;21.93;14.43;;;;;;;14.72;38.58;97120.25;5036799;28;20293;-84
2022/03/27 10:06:51;;;;;;;22.50;14.30;;;;;;;14.96;38.45;97126.50;5046641;28;20202;-84
2022/03/27 10:09:18;;;;;;;21.43;14.07;;;;;;;15.38;38.23;97129.00;5049497;28;20226;-84
2022/03/27 10:11:49;;;;;;;21.87;13.30;;;;;;;15.58;38.25;97126.69;5059150;28;20271;-85
2022/03/27 10:14:17;;;;;;;21.77;13.93;;;;;;;15.53;37.35;97123.84;5045649;28;20279;-84
2022/03/27 10:16:46;;;;;;;22.50;14.23;;;;;;;15.58;37.57;97118.53;5051513;28;20222;-84
2022/03/27 10:19:21;;;;;;;21.57;14.10;;;;;;;15.65;37.39;97111.03;5045841;28;20230;-84
2022/03/27 10:21:52;;;;;;;20.73;13.50;;;;;;;15.66;37.90;97109.97;5041220;28;20234;-84
2022/03/27 10:24:25;;;;;;;19.77;13.53;;;;;;;15.81;38.46;97112.16;5043424;28;20233;-84
2022/03/27 10:26:55;;;;;;;21.10;13.23;;;;;;;15.97;36.78;97116.00;5043759;28;20271;-84
2022/03/27 10:29:23;;;;;;;25.07;14.20;;;;;;;15.99;36.93;97111.13;5043140;28;20225;-84
2022/03/27 10:31:51;;;;;;;20.93;14.20;;;;;;;16.05;36.54;97099.22;5042603;28;20213;-83
2022/03/27 10:34:21;;;;;;;20.70;13.90;;;;;;;16.33;34.74;97099.16;5045724;28;20285;-84
2022/03/27 10:36:56;;;;;;;22.97;15.20;;;;;;;16.43;35.11;97102.03;5057952;28;20227;-84
2022/03/27 10:39:26;;;;;;;20.60;14.83;;;;;;;16.34;35.59;97098.06;5027746;28;20214;-84
2022/03/27 10:42:15;;;;;;;22.37;14.23;;;;;;;16.43;35.90;97112.09;5056174;28;20210;-84
2022/03/27 10:44:46;;;;;;;22.50;14.30;;;;;;;16.43;35.68;97110.22;5038035;28;20210;-84
2022/03/27 10:47:19;;;;;;;25.10;16.07;;;;;;;16.50;35.80;97099.94;5035976;28;20203;-84
2022/03/27 10:50:18;;;;;;;23.20;15.00;;;;;;;16.75;35.64;97101.47;5039897;28;20230;-84
2022/03/27 10:53:09;;;;;;;22.77;15.80;;;;;;;16.99;35.25;97100.97;5041777;28;20308;-84
2022/03/27 10:55:38;;;;;;;23.80;15.30;;;;;;;17.12;35.63;97085.31;5042223;28;20214;-83
2022/03/27 10:58:33;;;;;;;23.37;14.37;;;;;;;17.42;34.27;97079.41;5036118;28;20206;-84
2022/03/27 11:01:02;;;;;;;24.37;14.13;;;;;;;17.56;33.51;97086.09;5028572;28;20218;-84
2022/03/27 11:03:49;;;;;;;26.93;15.57;;;;;;;17.55;33.09;97082.53;5038419;28;20207;-84
2022/03/27 11:06:28;;;;;;;22.10;14.83;;;;;;;17.60;32.55;97076.31;5038042;28;20215;-84
2022/03/27 11:08:59;;;;;;;22.27;14.13;;;;;;;17.73;31.96;97068.56;5060403;28;20222;-84
2022/03/27 11:12:02;;;;;;;23.07;14.27;;;;;;;17.58;31.92;97073.03;5045204;28;20203;-83
2022/03/27 11:15:00;;;;;;;23.53;15.10;;;;;;;17.70;33.29;97065.50;5028362;28;20213;-84
2022/03/27 11:17:44;;;;;;;22.70;15.37;;;;;;;17.84;30.44;97066.75;5028263;28;20235;-83
2022/03/27 11:20:56;;;;;;;22.20;14.23;;;;;;;18.06;31.11;97059.31;5032341;28;20202;-83
2022/03/27 11:23:32;;;;;;;25.13;15.00;;;;;;;18.19;31.77;97055.31;5044164;28;20210;-84
2022/03/27 11:26:02;;;;;;;25.33;13.90;;;;;;;17.92;31.92;97058.09;5047122;28;20264;-84
2022/03/27 11:28:48;;;;;;;21.07;14.53;;;;;;;18.25;30.84;97058.91;5042526;28;20264;-84
2022/03/27 11:31:22;;;;;;;23.63;15.23;;;;;;;18.26;31.08;97060.56;5043775;28;20210;-84
2022/03/27 11:34:21;;;;;;;25.87;15.57;;;;;;;18.31;30.93;97055.13;5038363;28;20206;-84
2022/03/27 11:37:13;;;;;;;22.33;14.17;;;;;;;18.35;30.66;97054.34;5046258;28;20211;-84
2022/03/27 11:39:42;;;;;;;20.77;14.27;;;;;;;18.63;30.26;97049.66;5050100;28;20194;-84
2022/03/27 11:42:44;;;;;;;20.87;14.83;;;;;;;18.78;30.40;97056.03;5047970;28;20202;-83